createdAt,value
2023-03-18T00:00:35.211Z,7.60
2023-03-18T00:03:03.044Z,7.60
2023-03-18T00:05:31.112Z,7.50
2023-03-18T00:07:59.151Z,7.60
2023-03-18T00:10:26.519Z,7.60
2023-03-18T00:12:54.101Z,7.50
2023-03-18T00:15:21.632Z,7.50
2023-03-18T00:17:49.338Z,7.40
2023-03-18T00:20:18.533Z,7.30
2023-03-18T00:22:46.840Z,7.20
2023-03-18T00:25:15.525Z,7.10
2023-03-18T00:27:43.193Z,7.10
2023-03-18T00:30:13.292Z,7.10
2023-03-18T00:32:41.697Z,7.10
2023-03-18T00:35:09.631Z,7.10
2023-03-18T00:37:37.132Z,7.00
2023-03-18T00:40:10.031Z,7.00
2023-03-18T00:42:47.364Z,7.00
2023-03-18T00:45:17.125Z,7.00
2023-03-18T00:47:44.944Z,7.00
2023-03-18T00:50:12.718Z,7.00
2023-03-18T00:52:40.274Z,7.00
2023-03-18T00:55:08.422Z,7.00
2023-03-18T00:57:36.164Z,7.00
2023-03-18T01:00:07.038Z,6.90
2023-03-18T01:02:34.514Z,7.00
2023-03-18T01:05:02.654Z,7.00
2023-03-18T01:07:30.150Z,6.90
2023-03-18T01:09:57.702Z,7.00
2023-03-18T01:12:25.733Z,7.00
2023-03-18T01:14:53.796Z,7.00
2023-03-18T01:17:21.969Z,6.90
2023-03-18T01:19:49.916Z,6.80
2023-03-18T01:22:17.675Z,6.80
2023-03-18T01:24:49.538Z,6.70
2023-03-18T01:27:21.535Z,6.70
2023-03-18T01:29:49.289Z,6.70
2023-03-18T01:32:22.085Z,6.70
2023-03-18T01:34:49.805Z,6.60
2023-03-18T01:37:17.239Z,6.70
2023-03-18T01:39:49.333Z,6.70
2023-03-18T01:42:22.757Z,6.70
2023-03-18T01:44:50.808Z,6.80
2023-03-18T01:47:18.740Z,6.70
2023-03-18T01:49:53.543Z,6.60
2023-03-18T01:52:27.180Z,6.50
2023-03-18T01:55:17.226Z,6.50
2023-03-18T01:57:45.466Z,6.50
2023-03-18T02:00:16.432Z,6.50
2023-03-18T02:02:47.076Z,6.40
2023-03-18T02:05:18.998Z,6.40
2023-03-18T02:07:46.995Z,6.30
2023-03-18T02:10:22.441Z,6.40
2023-03-18T02:12:56.269Z,6.40
2023-03-18T02:15:31.361Z,6.40
2023-03-18T02:18:13.201Z,6.40
2023-03-18T02:20:49.725Z,6.40
2023-03-18T02:23:23.738Z,6.40
2023-03-18T02:26:05.063Z,6.40
2023-03-18T02:28:35.817Z,6.30
2023-03-18T02:31:09.552Z,6.40
2023-03-18T02:33:42.726Z,6.30
2023-03-18T02:36:21.736Z,6.30
2023-03-18T02:38:49.858Z,6.20
2023-03-18T02:41:33.796Z,6.30
2023-03-18T02:44:01.706Z,6.30
2023-03-18T02:46:55.833Z,6.40
2023-03-18T02:49:26.006Z,6.50
2023-03-18T02:52:03.783Z,6.40
2023-03-18T02:54:31.968Z,6.40
2023-03-18T02:57:00.492Z,6.40
2023-03-18T02:59:28.114Z,6.30
2023-03-18T03:01:57.647Z,6.30
2023-03-18T03:04:26.298Z,6.20
2023-03-18T03:06:55.257Z,6.20
2023-03-18T03:09:35.322Z,6.30
2023-03-18T03:12:03.102Z,6.20
2023-03-18T03:14:31.163Z,6.20
2023-03-18T03:17:01.151Z,6.20
2023-03-18T03:19:28.943Z,6.20
2023-03-18T03:21:57.162Z,6.20
2023-03-18T03:24:25.932Z,6.20
2023-03-18T03:26:53.526Z,6.10
2023-03-18T03:29:21.022Z,6.20
2023-03-18T03:31:50.194Z,6.20
2023-03-18T03:34:19.555Z,6.10
2023-03-18T03:36:47.049Z,6.00
2023-03-18T03:39:14.812Z,5.90
2023-03-18T03:41:42.216Z,5.90
2023-03-18T03:44:09.648Z,5.90
2023-03-18T03:46:37.549Z,5.80
2023-03-18T03:49:05.502Z,5.90
2023-03-18T03:51:32.907Z,5.80
2023-03-18T03:54:00.401Z,5.80
2023-03-18T03:56:28.337Z,5.80
2023-03-18T03:58:55.901Z,5.80
2023-03-18T04:01:27.284Z,5.80
2023-03-18T04:03:56.812Z,5.70
2023-03-18T04:06:24.714Z,5.70
2023-03-18T04:08:59.721Z,5.60
2023-03-18T04:11:28.329Z,5.50
2023-03-18T04:13:57.145Z,5.50
2023-03-18T04:16:24.703Z,5.40
2023-03-18T04:18:52.351Z,5.30
2023-03-18T04:21:23.336Z,5.50
2023-03-18T04:23:54.347Z,5.50
2023-03-18T04:26:22.906Z,5.50
2023-03-18T04:28:52.067Z,5.50
2023-03-18T04:31:19.552Z,5.50
2023-03-18T04:33:47.703Z,5.50
2023-03-18T04:36:15.565Z,5.40
2023-03-18T04:38:43.037Z,5.40
2023-03-18T04:41:11.096Z,5.40
2023-03-18T04:43:38.919Z,5.40
2023-03-18T04:46:07.709Z,5.40
2023-03-18T04:48:36.215Z,5.40
2023-03-18T04:51:05.988Z,5.30
2023-03-18T04:53:35.485Z,5.10
2023-03-18T04:56:04.322Z,5.20
2023-03-18T04:58:40.352Z,5.20
2023-03-18T05:01:13.871Z,5.20
2023-03-18T05:03:42.187Z,5.20
2023-03-18T05:06:21.804Z,5.30
2023-03-18T05:08:58.949Z,5.30
2023-03-18T05:11:29.682Z,5.30
2023-03-18T05:14:00.823Z,5.30
2023-03-18T05:16:31.157Z,5.20
2023-03-18T05:19:01.161Z,5.30
2023-03-18T05:21:30.537Z,5.30
2023-03-18T05:23:58.635Z,5.30
2023-03-18T05:26:27.251Z,5.40
2023-03-18T05:28:55.239Z,5.40
2023-03-18T05:31:33.685Z,5.40
2023-03-18T05:34:02.160Z,5.40
2023-03-18T05:36:34.252Z,5.40
2023-03-18T05:39:05.952Z,5.40
2023-03-18T05:41:35.928Z,5.40
2023-03-18T05:44:06.093Z,5.40
2023-03-18T05:46:36.752Z,5.50
2023-03-18T05:49:34.745Z,5.60
2023-03-18T05:52:17.347Z,5.80
2023-03-18T05:54:47.027Z,5.90
2023-03-18T05:57:18.252Z,6.00
2023-03-18T05:59:48.408Z,6.00
2023-03-18T06:02:16.907Z,6.00
2023-03-18T06:04:46.131Z,6.00
2023-03-18T06:07:15.261Z,6.00
2023-03-18T06:09:43.312Z,6.00
2023-03-18T06:12:11.521Z,6.00
2023-03-18T06:14:39.703Z,5.90
2023-03-18T06:17:08.398Z,6.00
2023-03-18T06:19:35.822Z,6.10
2023-03-18T06:22:03.271Z,6.20
2023-03-18T06:24:30.640Z,6.30
2023-03-18T06:26:58.755Z,6.40
2023-03-18T06:29:26.711Z,6.40
2023-03-18T06:31:57.914Z,6.50
2023-03-18T06:34:27.259Z,6.60
2023-03-18T06:36:56.952Z,6.70
2023-03-18T06:39:24.804Z,6.80
2023-03-18T06:41:53.092Z,7.00
2023-03-18T06:44:50.341Z,7.30
2023-03-18T06:47:22.784Z,7.60
2023-03-18T06:49:54.569Z,8.10
2023-03-18T06:52:29.320Z,8.50
2023-03-18T06:55:02.887Z,9.10
2023-03-18T06:57:30.464Z,9.50
2023-03-18T06:59:58.422Z,9.50
2023-03-18T07:02:27.484Z,9.60
2023-03-18T07:04:57.545Z,10.30
2023-03-18T07:07:25.170Z,10.80
2023-03-18T07:09:53.773Z,11.00
2023-03-18T07:12:21.950Z,10.80
2023-03-18T07:14:49.406Z,10.80
2023-03-18T07:17:19.899Z,11.20
2023-03-18T07:19:47.660Z,12.20
2023-03-18T07:22:18.344Z,13.30
2023-03-18T07:24:46.749Z,14.40
2023-03-18T07:27:14.623Z,14.90
2023-03-18T07:29:42.916Z,15.20
2023-03-18T07:32:10.800Z,15.30
2023-03-18T07:34:38.270Z,15.80
2023-03-18T07:37:05.746Z,16.00
2023-03-18T07:39:33.675Z,16.80
2023-03-18T07:42:02.136Z,17.90
2023-03-18T07:44:31.461Z,18.40
2023-03-18T07:46:59.568Z,19.30
2023-03-18T07:49:27.283Z,19.70
2023-03-18T07:51:54.673Z,20.10
2023-03-18T07:54:23.994Z,20.00
2023-03-18T07:56:53.486Z,19.80
2023-03-18T07:59:20.950Z,19.40
2023-03-18T08:01:49.069Z,18.70
2023-03-18T08:04:19.198Z,18.00
2023-03-18T08:06:50.175Z,17.50
2023-03-18T08:09:19.444Z,17.20
2023-03-18T08:11:48.458Z,17.70
2023-03-18T08:14:18.297Z,17.80
2023-03-18T08:16:47.382Z,18.10
2023-03-18T08:19:17.331Z,18.30
2023-03-18T08:21:46.756Z,18.70
2023-03-18T08:24:15.192Z,18.90
2023-03-18T08:26:44.256Z,19.30
2023-03-18T08:29:13.794Z,19.70
2023-03-18T08:31:43.243Z,19.80
2023-03-18T08:34:12.756Z,20.60
2023-03-18T08:36:43.879Z,21.20
2023-03-18T08:39:12.878Z,21.50
2023-03-18T08:41:44.810Z,21.80
2023-03-18T08:44:15.777Z,22.10
2023-03-18T08:46:44.613Z,21.40
2023-03-18T08:49:15.895Z,21.20
2023-03-18T08:51:46.400Z,21.20
2023-03-18T08:54:15.410Z,21.00
2023-03-18T08:56:45.350Z,20.80
2023-03-18T08:59:14.354Z,21.00
2023-03-18T09:01:43.220Z,21.00
2023-03-18T09:04:12.215Z,20.80
2023-03-18T09:06:42.411Z,20.30
2023-03-18T09:09:12.130Z,20.00
2023-03-18T09:11:42.120Z,19.70
2023-03-18T09:14:12.043Z,20.70
2023-03-18T09:16:41.386Z,21.20
2023-03-18T09:19:10.944Z,21.00
2023-03-18T09:21:40.218Z,21.30
2023-03-18T09:24:09.870Z,21.50
2023-03-18T09:26:40.048Z,21.70
2023-03-18T09:29:10.754Z,21.80
2023-03-18T09:31:40.231Z,22.30
2023-03-18T09:34:08.858Z,22.40
2023-03-18T09:36:39.141Z,22.30
2023-03-18T09:39:09.591Z,22.40
2023-03-18T09:41:51.502Z,22.70
2023-03-18T09:44:27.322Z,22.90
2023-03-18T09:47:05.517Z,22.80
2023-03-18T09:49:40.613Z,23.10
2023-03-18T09:52:18.570Z,23.20
2023-03-18T09:55:10.302Z,23.30
2023-03-18T09:57:44.461Z,23.80
2023-03-18T10:00:35.156Z,23.80
2023-03-18T10:03:19.358Z,23.80
2023-03-18T10:05:57.107Z,23.80
2023-03-18T10:08:48.045Z,24.10
2023-03-18T10:11:37.273Z,24.30
2023-03-18T10:14:27.542Z,24.20
2023-03-18T10:17:17.816Z,23.80
2023-03-18T10:19:58.056Z,23.90
2023-03-18T10:23:05.154Z,23.40
2023-03-18T10:25:49.525Z,23.50
2023-03-18T10:28:43.636Z,23.70
2023-03-18T10:31:36.627Z,23.90
2023-03-18T10:34:14.862Z,23.60
2023-03-18T10:37:29.036Z,23.60
2023-03-18T10:40:00.357Z,23.40
2023-03-18T10:42:33.392Z,23.20
2023-03-18T10:45:25.279Z,22.70
2023-03-18T10:48:15.320Z,22.70
2023-03-18T10:51:06.409Z,22.80
2023-03-18T10:53:40.046Z,22.70
2023-03-18T10:56:14.150Z,22.40
2023-03-18T10:58:43.155Z,22.40
2023-03-18T11:01:17.335Z,22.50
2023-03-18T11:03:55.915Z,22.50
2023-03-18T11:06:34.226Z,22.80
2023-03-18T11:09:13.911Z,22.70
2023-03-18T11:11:50.911Z,22.70
2023-03-18T11:14:24.733Z,22.20
2023-03-18T11:17:20.764Z,21.50
2023-03-18T11:20:02.776Z,20.40
2023-03-18T11:22:33.939Z,19.70
2023-03-18T11:25:25.530Z,18.90
2023-03-18T11:28:03.851Z,18.70
2023-03-18T11:30:56.862Z,18.40
2023-03-18T11:33:37.505Z,18.00
2023-03-18T11:36:08.966Z,17.90
2023-03-18T11:38:39.421Z,17.50
2023-03-18T11:41:09.689Z,17.40
2023-03-18T11:43:39.614Z,17.30
2023-03-18T11:46:12.257Z,17.40
2023-03-18T11:48:44.206Z,17.20
2023-03-18T11:51:28.380Z,17.10
2023-03-18T11:54:12.100Z,17.20
2023-03-18T11:56:53.093Z,17.30
2023-03-18T11:59:58.312Z,17.30
2023-03-18T12:02:36.236Z,17.40
2023-03-18T12:05:18.980Z,17.20
2023-03-18T12:07:50.774Z,16.90
2023-03-18T12:10:30.224Z,16.80
2023-03-18T12:13:27.781Z,16.80
2023-03-18T12:16:08.784Z,16.70
2023-03-18T12:19:16.781Z,16.70
2023-03-18T12:22:07.895Z,16.70
2023-03-18T12:24:39.654Z,16.80
2023-03-18T12:27:41.843Z,16.80
2023-03-18T12:30:44.078Z,16.80
2023-03-18T12:33:18.500Z,16.80
2023-03-18T12:36:32.440Z,16.80
2023-03-18T12:39:20.366Z,16.60
2023-03-18T12:42:02.656Z,16.60
2023-03-18T12:44:47.299Z,16.60
2023-03-18T12:47:32.251Z,16.50
2023-03-18T12:50:05.108Z,16.50
2023-03-18T12:52:46.153Z,16.40
2023-03-18T12:55:50.104Z,16.20
2023-03-18T12:58:44.153Z,16.30
2023-03-18T13:01:32.983Z,16.40
2023-03-18T13:04:12.179Z,16.50
2023-03-18T13:07:19.897Z,16.70
2023-03-18T13:10:03.819Z,16.90
2023-03-18T13:12:37.813Z,17.00
2023-03-18T13:15:25.751Z,17.10
2023-03-18T13:17:59.721Z,17.20
2023-03-18T13:20:34.305Z,17.20
2023-03-18T13:23:17.629Z,17.00
2023-03-18T13:26:13.839Z,17.00
2023-03-18T13:29:07.418Z,17.10
2023-03-18T13:32:23.706Z,17.20
2023-03-18T13:35:23.660Z,17.30
2023-03-18T13:38:26.227Z,17.20
2023-03-18T13:41:03.323Z,17.10
2023-03-18T13:43:34.281Z,17.10
2023-03-18T13:46:04.549Z,17.00
2023-03-18T13:48:36.175Z,16.90
2023-03-18T13:51:40.651Z,17.00
2023-03-18T13:54:19.102Z,17.10
2023-03-18T13:56:56.054Z,17.10
2023-03-18T13:59:34.010Z,17.10
2023-03-18T14:02:26.966Z,17.10
2023-03-18T14:04:59.876Z,17.10
2023-03-18T14:07:29.894Z,17.00
2023-03-18T14:10:18.266Z,17.00
2023-03-18T14:12:48.784Z,17.00
2023-03-18T14:15:37.200Z,16.90
2023-03-18T14:18:28.306Z,17.00
2023-03-18T14:21:02.548Z,17.10
2023-03-18T14:23:43.583Z,17.20
2023-03-18T14:26:32.533Z,17.30
2023-03-18T14:29:24.681Z,17.30
2023-03-18T14:32:00.459Z,17.10
2023-03-18T14:34:35.568Z,17.10
2023-03-18T14:37:20.594Z,17.00
2023-03-18T14:39:53.531Z,16.90
2023-03-18T14:42:32.243Z,16.80
2023-03-18T14:45:14.545Z,16.70
2023-03-18T14:47:55.126Z,16.70
2023-03-18T14:50:52.993Z,16.70
2023-03-18T14:53:41.433Z,16.70
2023-03-18T14:56:23.063Z,16.80
2023-03-18T14:58:54.196Z,16.80
2023-03-18T15:01:36.901Z,16.80
2023-03-18T15:04:11.881Z,16.80
2023-03-18T15:06:43.019Z,16.70
2023-03-18T15:09:29.796Z,16.70
2023-03-18T15:12:00.024Z,16.70
2023-03-18T15:14:31.877Z,16.80
2023-03-18T15:17:01.816Z,16.80
2023-03-18T15:19:30.652Z,16.80
2023-03-18T15:22:04.623Z,16.80
2023-03-18T15:24:32.957Z,16.80
2023-03-18T15:27:07.091Z,16.80
2023-03-18T15:29:38.626Z,16.70
2023-03-18T15:32:28.457Z,16.70
2023-03-18T15:35:08.127Z,16.70
2023-03-18T15:37:42.640Z,16.70
2023-03-18T15:40:32.858Z,16.80
2023-03-18T15:43:28.400Z,16.80
2023-03-18T15:46:04.898Z,16.70
2023-03-18T15:48:39.313Z,16.60
2023-03-18T15:51:22.486Z,16.60
2023-03-18T15:53:54.077Z,16.50
2023-03-18T15:56:29.535Z,16.50
2023-03-18T15:59:04.962Z,16.40
2023-03-18T16:01:37.855Z,16.40
2023-03-18T16:04:12.303Z,16.40
2023-03-18T16:06:40.391Z,16.30
2023-03-18T16:09:18.404Z,16.20
2023-03-18T16:11:58.830Z,16.20
2023-03-18T16:14:33.284Z,16.20
2023-03-18T16:17:00.723Z,16.10
2023-03-18T16:19:28.993Z,16.10
2023-03-18T16:21:58.555Z,16.00
2023-03-18T16:24:26.135Z,16.00
2023-03-18T16:26:54.946Z,15.90
2023-03-18T16:29:31.819Z,15.90
2023-03-18T16:32:00.463Z,15.90
2023-03-18T16:34:27.972Z,15.90
2023-03-18T16:36:56.146Z,15.80
2023-03-18T16:39:34.212Z,15.70
2023-03-18T16:42:04.401Z,15.60
2023-03-18T16:44:34.469Z,15.60
2023-03-18T16:47:02.450Z,15.50
2023-03-18T16:49:33.131Z,15.40
2023-03-18T16:52:01.947Z,15.40
2023-03-18T16:54:33.069Z,15.30
2023-03-18T16:57:03.113Z,15.20
2023-03-18T16:59:35.202Z,15.10
2023-03-18T17:02:04.157Z,15.10
2023-03-18T17:04:34.307Z,15.00
2023-03-18T17:07:04.905Z,14.90
2023-03-18T17:09:32.412Z,14.80
2023-03-18T17:12:04.566Z,14.70
2023-03-18T17:14:38.689Z,14.70
2023-03-18T17:17:11.532Z,14.60
2023-03-18T17:19:40.074Z,14.50
2023-03-18T17:22:24.245Z,14.40
2023-03-18T17:24:51.825Z,14.30
2023-03-18T17:27:25.663Z,14.30
2023-03-18T17:29:53.800Z,14.20
2023-03-18T17:32:22.395Z,14.20
2023-03-18T17:34:51.778Z,14.00
2023-03-18T17:37:20.779Z,14.00
2023-03-18T17:39:48.290Z,13.90
2023-03-18T17:42:31.424Z,13.90
2023-03-18T17:45:16.769Z,13.80
2023-03-18T17:47:44.356Z,13.80
2023-03-18T17:50:19.524Z,13.80
2023-03-18T17:52:49.748Z,13.80
2023-03-18T17:55:22.363Z,13.70
2023-03-18T17:57:50.804Z,13.70
2023-03-18T18:00:27.487Z,13.60
2023-03-18T18:02:55.021Z,13.60
2023-03-18T18:05:23.489Z,13.70
2023-03-18T18:07:51.566Z,13.60
2023-03-18T18:10:20.493Z,13.60
2023-03-18T18:12:49.845Z,13.60
2023-03-18T18:15:27.685Z,13.50
2023-03-18T18:17:55.796Z,13.50
2023-03-18T18:20:24.145Z,13.50
2023-03-18T18:22:54.999Z,13.40
2023-03-18T18:25:26.854Z,13.40
2023-03-18T18:27:56.261Z,13.30
2023-03-18T18:30:26.214Z,13.30
2023-03-18T18:32:55.215Z,13.30
2023-03-18T18:35:26.145Z,13.20
2023-03-18T18:37:55.159Z,13.20
2023-03-18T18:40:25.014Z,13.20
2023-03-18T18:42:56.228Z,13.00
2023-03-18T18:45:25.210Z,12.90
2023-03-18T18:47:56.907Z,12.80
2023-03-18T18:50:39.129Z,12.70
2023-03-18T18:53:25.070Z,12.60
2023-03-18T18:55:56.737Z,12.40
2023-03-18T18:58:35.055Z,12.30
2023-03-18T19:01:03.302Z,12.20
2023-03-18T19:03:31.347Z,12.10
2023-03-18T19:06:01.052Z,12.00
2023-03-18T19:08:36.269Z,11.80
2023-03-18T19:11:07.782Z,11.80
2023-03-18T19:13:37.708Z,11.80
2023-03-18T19:16:16.990Z,11.70
2023-03-18T19:18:44.477Z,11.70
2023-03-18T19:21:11.952Z,11.70
2023-03-18T19:23:39.446Z,11.60
2023-03-18T19:26:07.473Z,11.60
2023-03-18T19:28:57.546Z,11.60
2023-03-18T19:31:30.491Z,11.60
2023-03-18T19:33:59.441Z,11.50
2023-03-18T19:36:28.155Z,11.50
2023-03-18T19:38:58.288Z,11.50
2023-03-18T19:41:26.823Z,11.40
2023-03-18T19:43:58.627Z,11.40
2023-03-18T19:46:39.076Z,11.40
2023-03-18T19:49:16.984Z,11.40
2023-03-18T19:51:44.620Z,11.40
2023-03-18T19:54:23.728Z,11.30
2023-03-18T19:56:53.130Z,11.30
2023-03-18T19:59:23.764Z,11.30
2023-03-18T20:01:51.659Z,11.30
2023-03-18T20:04:19.839Z,11.20
2023-03-18T20:06:51.013Z,11.20
2023-03-18T20:09:18.384Z,11.20
2023-03-18T20:11:46.955Z,11.20
2023-03-18T20:14:20.434Z,11.20
2023-03-18T20:16:49.313Z,11.20
2023-03-18T20:19:17.390Z,11.10
2023-03-18T20:21:48.295Z,11.10
2023-03-18T20:24:18.605Z,11.10
2023-03-18T20:26:45.983Z,11.10
2023-03-18T20:29:19.010Z,11.10
2023-03-18T20:31:46.831Z,11.10
2023-03-18T20:34:14.429Z,11.10
2023-03-18T20:36:42.467Z,11.10
2023-03-18T20:39:19.845Z,10.90
2023-03-18T20:41:48.240Z,10.90
2023-03-18T20:44:15.748Z,10.80
2023-03-18T20:46:44.901Z,10.70
2023-03-18T20:49:12.847Z,10.70
2023-03-18T20:51:41.316Z,10.70
2023-03-18T20:54:29.969Z,10.70
2023-03-18T20:56:58.099Z,10.60
2023-03-18T20:59:25.635Z,10.60
2023-03-18T21:01:53.117Z,10.60
2023-03-18T21:04:20.574Z,10.60
2023-03-18T21:06:48.645Z,10.50
2023-03-18T21:09:16.464Z,10.50
2023-03-18T21:11:43.945Z,10.50
2023-03-18T21:14:15.457Z,10.40
2023-03-18T21:16:42.991Z,10.40
2023-03-18T21:19:11.209Z,10.40
2023-03-18T21:21:39.440Z,10.30
2023-03-18T21:24:27.911Z,10.20
2023-03-18T21:27:04.291Z,10.20
2023-03-18T21:29:33.087Z,10.20
2023-03-18T21:32:01.729Z,10.30
2023-03-18T21:34:29.198Z,10.20
2023-03-18T21:36:57.347Z,10.20
2023-03-18T21:39:24.804Z,10.20
2023-03-18T21:41:52.283Z,10.20
2023-03-18T21:44:19.688Z,10.20
2023-03-18T21:46:48.779Z,10.00
2023-03-18T21:49:16.221Z,10.00
2023-03-18T21:51:43.673Z,10.10
2023-03-18T21:54:18.841Z,10.00
2023-03-18T21:56:46.312Z,9.90
2023-03-18T21:59:15.137Z,9.90
2023-03-18T22:01:42.720Z,10.00
2023-03-18T22:04:10.685Z,10.00
2023-03-18T22:06:38.114Z,10.00
2023-03-18T22:09:05.868Z,10.00
2023-03-18T22:11:33.320Z,10.00
2023-03-18T22:14:00.740Z,10.00
2023-03-18T22:16:28.413Z,10.00
2023-03-18T22:18:56.101Z,9.90
2023-03-18T22:21:26.470Z,9.80
2023-03-18T22:23:54.874Z,9.80
2023-03-18T22:26:22.320Z,9.70
2023-03-18T22:28:50.689Z,9.80
2023-03-18T22:31:22.700Z,9.80
2023-03-18T22:33:51.009Z,9.70
2023-03-18T22:36:21.688Z,9.70
2023-03-18T22:38:49.371Z,9.70
2023-03-18T22:41:30.267Z,9.60
2023-03-18T22:44:00.068Z,9.60
2023-03-18T22:46:28.537Z,9.60
2023-03-18T22:48:59.205Z,9.60
2023-03-18T22:51:29.597Z,9.60
2023-03-18T22:53:57.190Z,9.50
2023-03-18T22:56:24.666Z,9.50
2023-03-18T22:58:52.321Z,9.50
2023-03-18T23:01:31.159Z,9.50
2023-03-18T23:03:58.906Z,9.60
2023-03-18T23:06:27.259Z,9.50
2023-03-18T23:08:54.823Z,9.60
2023-03-18T23:11:22.311Z,9.70
2023-03-18T23:13:50.718Z,9.70
2023-03-18T23:16:23.626Z,9.70
2023-03-18T23:18:51.735Z,9.70
2023-03-18T23:21:28.244Z,9.70
2023-03-18T23:23:56.600Z,9.70
2023-03-18T23:26:24.068Z,9.60
2023-03-18T23:28:51.730Z,9.60
2023-03-18T23:31:19.214Z,9.50
2023-03-18T23:33:47.250Z,9.50
2023-03-18T23:36:14.813Z,9.40
2023-03-18T23:38:42.537Z,9.40
2023-03-18T23:41:10.275Z,9.40
2023-03-18T23:43:37.752Z,9.40
2023-03-18T23:46:05.671Z,9.40
2023-03-18T23:48:33.177Z,9.40
2023-03-18T23:51:00.858Z,9.50
2023-03-18T23:53:28.331Z,9.60
2023-03-18T23:55:55.970Z,9.50
2023-03-18T23:58:23.433Z,9.40
